Terminal Aerodrome Forecast
Issued by NWS

Home | Current Version | Previous Version | Text Only | Print | Product List | Glossary On
Versions: 1 2 3 4 5 6 7 8 9 10 11 12 13 14 15 16 17
434
FTUS45 KRIW 041724
TAFCPR
TAF
KCPR 041724Z 0418/0518 22022G30KT P6SM SCT100 BKN150
     FM042200 22018G26KT P6SM BKN100
     FM050100 29012KT P6SM VCSH BKN060
     FM050500 27011KT P6SM BKN080
     FM051600 22012G18KT P6SM SKC=

USA.gov is the U.S. government's official web portal to all federal, state and local government web resources and services.